sensor_id;sensor_type;location;lat;lon;timestamp;P1;durP1;ratioP1;P2;durP2;ratioP2
59504;SDS011;45321;53.200;5.814;2023-07-13T00:00:28;10.05;;;1.50;;
59504;SDS011;45321;53.200;5.814;2023-07-13T00:02:55;6.18;;;1.58;;
59504;SDS011;45321;53.200;5.814;2023-07-13T00:05:21;9.00;;;1.77;;
59504;SDS011;45321;53.200;5.814;2023-07-13T00:07:48;5.88;;;1.33;;
59504;SDS011;45321;53.200;5.814;2023-07-13T00:10:15;7.97;;;1.42;;
59504;SDS011;45321;53.200;5.814;2023-07-13T00:12:42;5.50;;;1.77;;
59504;SDS011;45321;53.200;5.814;2023-07-13T00:15:19;8.55;;;1.50;;
59504;SDS011;45321;53.200;5.814;2023-07-13T00:17:50;10.57;;;1.85;;
59504;SDS011;45321;53.200;5.814;2023-07-13T00:20:18;8.45;;;1.77;;
59504;SDS011;45321;53.200;5.814;2023-07-13T00:22:46;8.43;;;1.52;;
59504;SDS011;45321;53.200;5.814;2023-07-13T00:25:13;7.90;;;1.48;;
59504;SDS011;45321;53.200;5.814;2023-07-13T00:27:39;7.50;;;1.75;;
59504;SDS011;45321;53.200;5.814;2023-07-13T00:30:05;9.25;;;1.60;;
59504;SDS011;45321;53.200;5.814;2023-07-13T00:32:31;7.10;;;1.45;;
59504;SDS011;45321;53.200;5.814;2023-07-13T00:34:57;4.78;;;1.02;;
59504;SDS011;45321;53.200;5.814;2023-07-13T00:37:25;4.15;;;1.20;;
59504;SDS011;45321;53.200;5.814;2023-07-13T00:39:51;4.03;;;1.10;;
59504;SDS011;45321;53.200;5.814;2023-07-13T00:42:16;6.45;;;1.25;;
59504;SDS011;45321;53.200;5.814;2023-07-13T00:45:00;9.15;;;1.10;;
59504;SDS011;45321;53.200;5.814;2023-07-13T00:47:49;7.03;;;1.60;;
59504;SDS011;45321;53.200;5.814;2023-07-13T00:50:16;5.60;;;0.95;;
59504;SDS011;45321;53.200;5.814;2023-07-13T00:52:44;4.85;;;0.95;;
59504;SDS011;45321;53.200;5.814;2023-07-13T00:55:13;4.90;;;1.77;;
59504;SDS011;45321;53.200;5.814;2023-07-13T00:57:40;6.85;;;1.08;;
59504;SDS011;45321;53.200;5.814;2023-07-13T01:00:07;4.93;;;0.77;;
59504;SDS011;45321;53.200;5.814;2023-07-13T01:02:38;4.72;;;0.88;;
59504;SDS011;45321;53.200;5.814;2023-07-13T01:05:09;6.13;;;0.70;;
59504;SDS011;45321;53.200;5.814;2023-07-13T01:07:35;5.72;;;1.00;;
59504;SDS011;45321;53.200;5.814;2023-07-13T01:10:02;6.20;;;0.90;;
59504;SDS011;45321;53.200;5.814;2023-07-13T01:12:28;6.20;;;1.75;;
59504;SDS011;45321;53.200;5.814;2023-07-13T01:14:57;2.40;;;0.70;;
59504;SDS011;45321;53.200;5.814;2023-07-13T01:17:25;3.13;;;0.80;;
59504;SDS011;45321;53.200;5.814;2023-07-13T01:19:52;4.95;;;0.90;;
59504;SDS011;45321;53.200;5.814;2023-07-13T01:22:18;6.50;;;0.90;;
59504;SDS011;45321;53.200;5.814;2023-07-13T01:24:47;6.18;;;0.82;;
59504;SDS011;45321;53.200;5.814;2023-07-13T01:27:14;4.30;;;0.60;;
59504;SDS011;45321;53.200;5.814;2023-07-13T01:29:43;4.78;;;1.33;;
59504;SDS011;45321;53.200;5.814;2023-07-13T01:32:19;5.13;;;0.60;;
59504;SDS011;45321;53.200;5.814;2023-07-13T01:34:49;4.38;;;0.95;;
59504;SDS011;45321;53.200;5.814;2023-07-13T01:37:16;7.72;;;1.40;;
59504;SDS011;45321;53.200;5.814;2023-07-13T01:39:42;1.70;;;0.65;;
59504;SDS011;45321;53.200;5.814;2023-07-13T01:42:08;3.85;;;1.02;;
59504;SDS011;45321;53.200;5.814;2023-07-13T01:44:34;5.18;;;1.13;;
59504;SDS011;45321;53.200;5.814;2023-07-13T01:47:00;7.30;;;1.58;;
59504;SDS011;45321;53.200;5.814;2023-07-13T01:49:26;4.07;;;1.02;;
59504;SDS011;45321;53.200;5.814;2023-07-13T01:51:52;3.63;;;0.95;;
59504;SDS011;45321;53.200;5.814;2023-07-13T01:54:17;6.30;;;1.23;;
59504;SDS011;45321;53.200;5.814;2023-07-13T01:56:43;7.72;;;1.42;;
59504;SDS011;45321;53.200;5.814;2023-07-13T01:59:09;8.25;;;1.13;;
59504;SDS011;45321;53.200;5.814;2023-07-13T02:01:35;7.90;;;1.55;;
59504;SDS011;45321;53.200;5.814;2023-07-13T02:04:01;5.22;;;1.33;;
59504;SDS011;45321;53.200;5.814;2023-07-13T02:06:27;12.27;;;1.70;;
59504;SDS011;45321;53.200;5.814;2023-07-13T02:08:53;5.07;;;1.33;;
59504;SDS011;45321;53.200;5.814;2023-07-13T02:11:19;5.50;;;1.42;;
59504;SDS011;45321;53.200;5.814;2023-07-13T02:13:45;7.40;;;1.17;;
59504;SDS011;45321;53.200;5.814;2023-07-13T02:16:11;7.63;;;1.67;;
59504;SDS011;45321;53.200;5.814;2023-07-13T02:18:37;6.38;;;1.30;;
59504;SDS011;45321;53.200;5.814;2023-07-13T02:21:02;7.95;;;1.40;;
59504;SDS011;45321;53.200;5.814;2023-07-13T02:23:28;14.27;;;2.22;;
59504;SDS011;45321;53.200;5.814;2023-07-13T02:25:58;8.23;;;1.65;;
59504;SDS011;45321;53.200;5.814;2023-07-13T02:28:25;10.05;;;2.17;;
59504;SDS011;45321;53.200;5.814;2023-07-13T02:30:51;7.70;;;1.60;;
59504;SDS011;45321;53.200;5.814;2023-07-13T02:33:17;8.55;;;1.95;;
59504;SDS011;45321;53.200;5.814;2023-07-13T02:35:42;9.27;;;2.13;;
59504;SDS011;45321;53.200;5.814;2023-07-13T02:38:08;9.15;;;2.08;;
59504;SDS011;45321;53.200;5.814;2023-07-13T02:40:34;10.77;;;2.00;;
59504;SDS011;45321;53.200;5.814;2023-07-13T02:43:00;7.47;;;2.15;;
59504;SDS011;45321;53.200;5.814;2023-07-13T02:45:27;8.93;;;2.15;;
59504;SDS011;45321;53.200;5.814;2023-07-13T02:47:53;13.43;;;2.67;;
59504;SDS011;45321;53.200;5.814;2023-07-13T02:50:19;12.70;;;2.90;;
59504;SDS011;45321;53.200;5.814;2023-07-13T02:52:45;8.90;;;2.30;;
59504;SDS011;45321;53.200;5.814;2023-07-13T02:55:11;9.48;;;2.78;;
59504;SDS011;45321;53.200;5.814;2023-07-13T02:57:37;8.75;;;2.28;;
59504;SDS011;45321;53.200;5.814;2023-07-13T03:00:03;12.32;;;2.47;;
59504;SDS011;45321;53.200;5.814;2023-07-13T03:02:33;12.32;;;2.60;;
59504;SDS011;45321;53.200;5.814;2023-07-13T03:04:59;14.57;;;2.67;;
59504;SDS011;45321;53.200;5.814;2023-07-13T03:07:25;11.48;;;2.95;;
59504;SDS011;45321;53.200;5.814;2023-07-13T03:09:57;11.07;;;2.78;;
59504;SDS011;45321;53.200;5.814;2023-07-13T03:12:24;9.73;;;2.60;;
59504;SDS011;45321;53.200;5.814;2023-07-13T03:14:50;10.02;;;2.35;;
59504;SDS011;45321;53.200;5.814;2023-07-13T03:17:16;14.02;;;3.10;;
59504;SDS011;45321;53.200;5.814;2023-07-13T03:19:42;8.18;;;2.88;;
59504;SDS011;45321;53.200;5.814;2023-07-13T03:22:08;11.63;;;3.25;;
59504;SDS011;45321;53.200;5.814;2023-07-13T03:24:34;10.23;;;2.78;;
59504;SDS011;45321;53.200;5.814;2023-07-13T03:27:03;9.45;;;2.90;;
59504;SDS011;45321;53.200;5.814;2023-07-13T03:29:30;10.45;;;3.13;;
59504;SDS011;45321;53.200;5.814;2023-07-13T03:31:55;11.82;;;2.53;;
59504;SDS011;45321;53.200;5.814;2023-07-13T03:34:21;7.72;;;2.22;;
59504;SDS011;45321;53.200;5.814;2023-07-13T03:36:47;12.30;;;2.58;;
59504;SDS011;45321;53.200;5.814;2023-07-13T03:39:12;10.15;;;2.70;;
59504;SDS011;45321;53.200;5.814;2023-07-13T03:41:38;9.85;;;3.05;;
59504;SDS011;45321;53.200;5.814;2023-07-13T03:44:04;9.95;;;2.92;;
59504;SDS011;45321;53.200;5.814;2023-07-13T03:46:30;13.32;;;3.17;;
59504;SDS011;45321;53.200;5.814;2023-07-13T03:48:57;8.65;;;2.70;;
59504;SDS011;45321;53.200;5.814;2023-07-13T03:51:23;9.73;;;3.75;;
59504;SDS011;45321;53.200;5.814;2023-07-13T03:53:49;7.22;;;2.67;;
59504;SDS011;45321;53.200;5.814;2023-07-13T03:56:15;11.65;;;3.10;;
59504;SDS011;45321;53.200;5.814;2023-07-13T03:58:43;10.30;;;2.90;;
59504;SDS011;45321;53.200;5.814;2023-07-13T04:01:11;10.88;;;2.90;;
59504;SDS011;45321;53.200;5.814;2023-07-13T04:03:37;11.15;;;3.20;;
59504;SDS011;45321;53.200;5.814;2023-07-13T04:06:04;11.10;;;3.38;;
59504;SDS011;45321;53.200;5.814;2023-07-13T04:08:32;8.65;;;2.97;;
59504;SDS011;45321;53.200;5.814;2023-07-13T04:11:00;11.45;;;3.03;;
59504;SDS011;45321;53.200;5.814;2023-07-13T04:13:26;8.40;;;2.63;;
59504;SDS011;45321;53.200;5.814;2023-07-13T04:15:53;8.35;;;2.88;;
59504;SDS011;45321;53.200;5.814;2023-07-13T04:18:19;11.63;;;2.83;;
59504;SDS011;45321;53.200;5.814;2023-07-13T04:20:48;9.32;;;3.15;;
59504;SDS011;45321;53.200;5.814;2023-07-13T04:23:15;10.45;;;2.97;;
59504;SDS011;45321;53.200;5.814;2023-07-13T04:25:45;10.23;;;3.22;;
59504;SDS011;45321;53.200;5.814;2023-07-13T04:28:14;12.23;;;2.85;;
59504;SDS011;45321;53.200;5.814;2023-07-13T04:30:42;9.85;;;3.08;;
59504;SDS011;45321;53.200;5.814;2023-07-13T04:33:08;11.77;;;3.47;;
59504;SDS011;45321;53.200;5.814;2023-07-13T04:35:34;9.20;;;3.22;;
59504;SDS011;45321;53.200;5.814;2023-07-13T04:38:00;13.70;;;3.67;;
59504;SDS011;45321;53.200;5.814;2023-07-13T04:40:27;12.18;;;2.72;;
59504;SDS011;45321;53.200;5.814;2023-07-13T04:42:53;8.93;;;3.20;;
59504;SDS011;45321;53.200;5.814;2023-07-13T04:45:19;10.55;;;3.40;;
59504;SDS011;45321;53.200;5.814;2023-07-13T04:47:44;10.88;;;3.40;;
59504;SDS011;45321;53.200;5.814;2023-07-13T04:50:12;9.57;;;3.20;;
59504;SDS011;45321;53.200;5.814;2023-07-13T04:52:40;8.30;;;3.20;;
59504;SDS011;45321;53.200;5.814;2023-07-13T04:55:07;11.15;;;2.92;;
59504;SDS011;45321;53.200;5.814;2023-07-13T04:57:33;7.80;;;3.17;;
59504;SDS011;45321;53.200;5.814;2023-07-13T04:59:59;11.88;;;3.20;;
59504;SDS011;45321;53.200;5.814;2023-07-13T05:02:26;6.65;;;2.83;;
59504;SDS011;45321;53.200;5.814;2023-07-13T05:04:53;8.88;;;3.03;;
59504;SDS011;45321;53.200;5.814;2023-07-13T05:07:19;8.95;;;3.20;;
59504;SDS011;45321;53.200;5.814;2023-07-13T05:09:44;10.52;;;3.47;;
59504;SDS011;45321;53.200;5.814;2023-07-13T05:12:10;10.38;;;3.55;;
59504;SDS011;45321;53.200;5.814;2023-07-13T05:14:36;10.63;;;2.90;;
59504;SDS011;45321;53.200;5.814;2023-07-13T05:17:02;8.45;;;2.40;;
59504;SDS011;45321;53.200;5.814;2023-07-13T05:19:28;7.20;;;2.72;;
59504;SDS011;45321;53.200;5.814;2023-07-13T05:21:53;10.95;;;2.83;;
59504;SDS011;45321;53.200;5.814;2023-07-13T05:24:19;8.57;;;2.70;;
59504;SDS011;45321;53.200;5.814;2023-07-13T05:26:45;9.98;;;2.80;;
59504;SDS011;45321;53.200;5.814;2023-07-13T05:29:11;8.65;;;2.47;;
59504;SDS011;45321;53.200;5.814;2023-07-13T05:31:36;7.88;;;2.70;;
59504;SDS011;45321;53.200;5.814;2023-07-13T05:34:02;10.38;;;2.67;;
59504;SDS011;45321;53.200;5.814;2023-07-13T05:36:28;11.27;;;2.95;;
59504;SDS011;45321;53.200;5.814;2023-07-13T05:38:53;11.65;;;2.85;;
59504;SDS011;45321;53.200;5.814;2023-07-13T05:41:19;8.25;;;2.13;;
59504;SDS011;45321;53.200;5.814;2023-07-13T05:43:45;7.07;;;2.28;;
59504;SDS011;45321;53.200;5.814;2023-07-13T05:46:10;9.70;;;2.97;;
59504;SDS011;45321;53.200;5.814;2023-07-13T05:48:36;8.05;;;2.53;;
59504;SDS011;45321;53.200;5.814;2023-07-13T05:51:02;9.07;;;2.80;;
59504;SDS011;45321;53.200;5.814;2023-07-13T05:53:27;4.85;;;2.40;;
59504;SDS011;45321;53.200;5.814;2023-07-13T05:55:53;10.45;;;2.40;;
59504;SDS011;45321;53.200;5.814;2023-07-13T05:58:20;5.72;;;2.78;;
59504;SDS011;45321;53.200;5.814;2023-07-13T06:00:46;7.53;;;1.92;;
59504;SDS011;45321;53.200;5.814;2023-07-13T06:03:13;6.95;;;2.10;;
59504;SDS011;45321;53.200;5.814;2023-07-13T06:05:39;9.02;;;1.80;;
59504;SDS011;45321;53.200;5.814;2023-07-13T06:08:05;6.07;;;1.70;;
59504;SDS011;45321;53.200;5.814;2023-07-13T06:10:32;5.55;;;1.70;;
59504;SDS011;45321;53.200;5.814;2023-07-13T06:12:59;7.10;;;1.33;;
59504;SDS011;45321;53.200;5.814;2023-07-13T06:15:24;5.00;;;1.33;;
59504;SDS011;45321;53.200;5.814;2023-07-13T06:17:50;4.95;;;1.38;;
59504;SDS011;45321;53.200;5.814;2023-07-13T06:20:16;6.47;;;1.65;;
59504;SDS011;45321;53.200;5.814;2023-07-13T06:22:42;4.70;;;1.35;;
59504;SDS011;45321;53.200;5.814;2023-07-13T06:25:08;5.07;;;1.70;;
59504;SDS011;45321;53.200;5.814;2023-07-13T06:27:34;6.45;;;1.52;;
59504;SDS011;45321;53.200;5.814;2023-07-13T06:30:00;7.75;;;1.25;;
59504;SDS011;45321;53.200;5.814;2023-07-13T06:32:25;5.85;;;1.63;;
59504;SDS011;45321;53.200;5.814;2023-07-13T06:34:51;4.32;;;1.00;;
59504;SDS011;45321;53.200;5.814;2023-07-13T06:37:17;6.55;;;1.48;;
59504;SDS011;45321;53.200;5.814;2023-07-13T06:39:43;4.25;;;1.33;;
59504;SDS011;45321;53.200;5.814;2023-07-13T06:42:09;6.10;;;1.20;;
59504;SDS011;45321;53.200;5.814;2023-07-13T06:44:36;7.20;;;1.33;;
59504;SDS011;45321;53.200;5.814;2023-07-13T06:47:01;4.13;;;1.20;;
59504;SDS011;45321;53.200;5.814;2023-07-13T06:49:27;4.93;;;1.50;;
59504;SDS011;45321;53.200;5.814;2023-07-13T06:51:53;7.00;;;1.48;;
59504;SDS011;45321;53.200;5.814;2023-07-13T06:54:19;6.22;;;1.33;;
59504;SDS011;45321;53.200;5.814;2023-07-13T06:56:45;4.82;;;0.98;;
59504;SDS011;45321;53.200;5.814;2023-07-13T06:59:10;2.25;;;1.13;;
59504;SDS011;45321;53.200;5.814;2023-07-13T07:01:36;6.63;;;0.95;;
59504;SDS011;45321;53.200;5.814;2023-07-13T07:04:03;4.25;;;1.20;;
59504;SDS011;45321;53.200;5.814;2023-07-13T07:06:29;2.55;;;1.20;;
59504;SDS011;45321;53.200;5.814;2023-07-13T07:08:55;5.22;;;1.27;;
59504;SDS011;45321;53.200;5.814;2023-07-13T07:11:23;4.28;;;1.13;;
59504;SDS011;45321;53.200;5.814;2023-07-13T07:13:50;4.40;;;1.45;;
59504;SDS011;45321;53.200;5.814;2023-07-13T07:16:18;7.70;;;1.75;;
59504;SDS011;45321;53.200;5.814;2023-07-13T07:18:44;5.28;;;1.05;;
59504;SDS011;45321;53.200;5.814;2023-07-13T07:21:11;5.85;;;1.40;;
59504;SDS011;45321;53.200;5.814;2023-07-13T07:23:37;8.48;;;1.40;;
59504;SDS011;45321;53.200;5.814;2023-07-13T07:26:03;8.18;;;1.35;;
59504;SDS011;45321;53.200;5.814;2023-07-13T07:28:29;3.63;;;1.05;;
59504;SDS011;45321;53.200;5.814;2023-07-13T07:30:55;5.50;;;1.55;;
59504;SDS011;45321;53.200;5.814;2023-07-13T07:33:22;7.72;;;1.23;;
59504;SDS011;45321;53.200;5.814;2023-07-13T07:35:49;3.38;;;1.40;;
59504;SDS011;45321;53.200;5.814;2023-07-13T07:38:15;6.38;;;1.25;;
59504;SDS011;45321;53.200;5.814;2023-07-13T07:40:41;2.08;;;1.00;;
59504;SDS011;45321;53.200;5.814;2023-07-13T07:43:08;5.18;;;1.10;;
59504;SDS011;45321;53.200;5.814;2023-07-13T07:45:34;7.20;;;1.45;;
59504;SDS011;45321;53.200;5.814;2023-07-13T07:48:02;5.68;;;1.30;;
59504;SDS011;45321;53.200;5.814;2023-07-13T07:50:29;6.78;;;1.70;;
59504;SDS011;45321;53.200;5.814;2023-07-13T07:52:55;8.13;;;1.55;;
59504;SDS011;45321;53.200;5.814;2023-07-13T07:55:23;8.02;;;1.60;;
59504;SDS011;45321;53.200;5.814;2023-07-13T07:57:53;8.85;;;1.40;;
59504;SDS011;45321;53.200;5.814;2023-07-13T08:00:18;4.43;;;1.63;;
59504;SDS011;45321;53.200;5.814;2023-07-13T08:02:44;7.20;;;1.80;;
59504;SDS011;45321;53.200;5.814;2023-07-13T08:05:10;6.63;;;1.17;;
59504;SDS011;45321;53.200;5.814;2023-07-13T08:07:37;6.07;;;1.80;;
59504;SDS011;45321;53.200;5.814;2023-07-13T08:10:03;7.32;;;2.03;;
59504;SDS011;45321;53.200;5.814;2023-07-13T08:12:30;4.10;;;1.30;;
59504;SDS011;45321;53.200;5.814;2023-07-13T08:14:59;3.72;;;1.10;;
59504;SDS011;45321;53.200;5.814;2023-07-13T08:17:26;6.53;;;1.52;;
59504;SDS011;45321;53.200;5.814;2023-07-13T08:19:52;9.70;;;1.95;;
59504;SDS011;45321;53.200;5.814;2023-07-13T08:22:17;5.55;;;1.40;;
59504;SDS011;45321;53.200;5.814;2023-07-13T08:24:43;6.47;;;1.30;;
59504;SDS011;45321;53.200;5.814;2023-07-13T08:27:10;6.15;;;1.40;;
59504;SDS011;45321;53.200;5.814;2023-07-13T08:29:36;4.72;;;0.85;;
59504;SDS011;45321;53.200;5.814;2023-07-13T08:32:03;7.93;;;1.42;;
59504;SDS011;45321;53.200;5.814;2023-07-13T08:34:31;4.78;;;1.55;;
59504;SDS011;45321;53.200;5.814;2023-07-13T08:36:56;4.82;;;1.13;;
59504;SDS011;45321;53.200;5.814;2023-07-13T08:39:22;4.35;;;1.02;;
59504;SDS011;45321;53.200;5.814;2023-07-13T08:41:49;6.35;;;1.10;;
59504;SDS011;45321;53.200;5.814;2023-07-13T08:44:25;4.07;;;0.63;;
59504;SDS011;45321;53.200;5.814;2023-07-13T08:49:24;4.43;;;0.98;;
59504;SDS011;45321;53.200;5.814;2023-07-13T08:51:53;5.68;;;0.90;;
59504;SDS011;45321;53.200;5.814;2023-07-13T08:56:51;5.78;;;1.23;;
59504;SDS011;45321;53.200;5.814;2023-07-13T08:59:19;3.70;;;1.20;;
59504;SDS011;45321;53.200;5.814;2023-07-13T09:02:14;4.18;;;0.98;;
59504;SDS011;45321;53.200;5.814;2023-07-13T09:04:53;6.05;;;1.00;;
59504;SDS011;45321;53.200;5.814;2023-07-13T09:07:34;3.90;;;1.08;;
59504;SDS011;45321;53.200;5.814;2023-07-13T09:15:37;4.57;;;1.05;;
59504;SDS011;45321;53.200;5.814;2023-07-13T09:20:40;5.22;;;1.10;;
59504;SDS011;45321;53.200;5.814;2023-07-13T09:23:21;5.10;;;0.82;;
59504;SDS011;45321;53.200;5.814;2023-07-13T09:25:51;3.03;;;0.90;;
59504;SDS011;45321;53.200;5.814;2023-07-13T09:28:27;3.72;;;0.90;;
59504;SDS011;45321;53.200;5.814;2023-07-13T09:31:01;4.15;;;0.90;;
59504;SDS011;45321;53.200;5.814;2023-07-13T09:33:37;5.10;;;1.27;;
59504;SDS011;45321;53.200;5.814;2023-07-13T09:36:48;3.47;;;0.70;;
59504;SDS011;45321;53.200;5.814;2023-07-13T09:38:59;2.40;;;0.70;;
59504;SDS011;45321;53.200;5.814;2023-07-13T09:41:33;4.82;;;0.77;;
59504;SDS011;45321;53.200;5.814;2023-07-13T09:44:11;3.80;;;0.70;;
59504;SDS011;45321;53.200;5.814;2023-07-13T09:46:51;3.45;;;0.60;;
59504;SDS011;45321;53.200;5.814;2023-07-13T09:49:22;2.70;;;0.52;;
59504;SDS011;45321;53.200;5.814;2023-07-13T09:51:57;2.08;;;0.77;;
59504;SDS011;45321;53.200;5.814;2023-07-13T09:54:26;1.98;;;0.70;;
59504;SDS011;45321;53.200;5.814;2023-07-13T09:56:55;2.40;;;0.70;;
59504;SDS011;45321;53.200;5.814;2023-07-13T09:59:23;3.05;;;0.80;;
59504;SDS011;45321;53.200;5.814;2023-07-13T10:01:52;3.80;;;0.80;;
59504;SDS011;45321;53.200;5.814;2023-07-13T10:04:18;3.60;;;0.85;;
59504;SDS011;45321;53.200;5.814;2023-07-13T10:06:45;5.05;;;1.30;;
59504;SDS011;45321;53.200;5.814;2023-07-13T10:09:16;1.88;;;0.70;;
59504;SDS011;45321;53.200;5.814;2023-07-13T10:11:42;5.18;;;1.00;;
59504;SDS011;45321;53.200;5.814;2023-07-13T10:14:14;2.95;;;1.13;;
59504;SDS011;45321;53.200;5.814;2023-07-13T10:16:43;8.77;;;1.20;;
59504;SDS011;45321;53.200;5.814;2023-07-13T10:19:25;5.07;;;0.98;;
59504;SDS011;45321;53.200;5.814;2023-07-13T10:21:54;4.07;;;1.27;;
59504;SDS011;45321;53.200;5.814;2023-07-13T10:24:25;3.97;;;1.30;;
59504;SDS011;45321;53.200;5.814;2023-07-13T10:29:36;2.22;;;1.05;;
59504;SDS011;45321;53.200;5.814;2023-07-13T10:32:13;5.75;;;1.20;;
59504;SDS011;45321;53.200;5.814;2023-07-13T10:34:43;2.67;;;0.85;;
59504;SDS011;45321;53.200;5.814;2023-07-13T10:37:16;4.20;;;1.55;;
59504;SDS011;45321;53.200;5.814;2023-07-13T10:39:51;4.20;;;1.08;;
59504;SDS011;45321;53.200;5.814;2023-07-13T10:42:30;4.28;;;1.10;;
59504;SDS011;45321;53.200;5.814;2023-07-13T10:45:00;5.30;;;1.23;;
59504;SDS011;45321;53.200;5.814;2023-07-13T10:47:26;5.43;;;1.50;;
59504;SDS011;45321;53.200;5.814;2023-07-13T10:49:53;6.32;;;1.83;;
59504;SDS011;45321;53.200;5.814;2023-07-13T10:52:41;5.63;;;1.40;;
59504;SDS011;45321;53.200;5.814;2023-07-13T10:55:36;7.00;;;1.48;;
59504;SDS011;45321;53.200;5.814;2023-07-13T11:21:31;4.22;;;1.20;;
59504;SDS011;45321;53.200;5.814;2023-07-13T11:29:27;6.43;;;1.33;;
59504;SDS011;45321;53.200;5.814;2023-07-13T11:32:19;5.55;;;1.27;;
59504;SDS011;45321;53.200;5.814;2023-07-13T11:34:48;5.68;;;1.38;;
59504;SDS011;45321;53.200;5.814;2023-07-13T11:37:15;6.72;;;1.27;;
59504;SDS011;45321;53.200;5.814;2023-07-13T11:39:44;3.22;;;1.10;;
59504;SDS011;45321;53.200;5.814;2023-07-13T11:42:12;3.40;;;1.08;;
59504;SDS011;45321;53.200;5.814;2023-07-13T11:44:47;5.88;;;1.40;;
59504;SDS011;45321;53.200;5.814;2023-07-13T11:47:18;7.80;;;2.35;;
59504;SDS011;45321;53.200;5.814;2023-07-13T11:49:50;8.57;;;1.45;;
59504;SDS011;45321;53.200;5.814;2023-07-13T11:52:24;5.47;;;1.30;;
59504;SDS011;45321;53.200;5.814;2023-07-13T11:55:01;5.65;;;1.00;;
59504;SDS011;45321;53.200;5.814;2023-07-13T11:57:30;6.97;;;1.50;;
59504;SDS011;45321;53.200;5.814;2023-07-13T11:59:59;3.50;;;1.10;;
59504;SDS011;45321;53.200;5.814;2023-07-13T12:02:31;6.93;;;1.30;;
59504;SDS011;45321;53.200;5.814;2023-07-13T12:04:59;5.90;;;1.58;;
59504;SDS011;45321;53.200;5.814;2023-07-13T12:07:28;4.75;;;1.63;;
59504;SDS011;45321;53.200;5.814;2023-07-13T12:10:03;6.88;;;2.17;;
59504;SDS011;45321;53.200;5.814;2023-07-13T12:12:58;6.00;;;1.50;;
59504;SDS011;45321;53.200;5.814;2023-07-13T12:15:39;6.47;;;1.58;;
59504;SDS011;45321;53.200;5.814;2023-07-13T12:18:13;7.00;;;1.52;;
59504;SDS011;45321;53.200;5.814;2023-07-13T12:20:41;8.07;;;1.27;;
59504;SDS011;45321;53.200;5.814;2023-07-13T12:23:40;7.45;;;1.50;;
59504;SDS011;45321;53.200;5.814;2023-07-13T12:26:04;5.25;;;1.42;;
59504;SDS011;45321;53.200;5.814;2023-07-13T12:28:35;7.93;;;1.48;;
59504;SDS011;45321;53.200;5.814;2023-07-13T12:31:33;10.45;;;2.60;;
59504;SDS011;45321;53.200;5.814;2023-07-13T12:39:22;6.68;;;1.48;;
59504;SDS011;45321;53.200;5.814;2023-07-13T12:41:51;6.55;;;2.03;;
59504;SDS011;45321;53.200;5.814;2023-07-13T12:44:29;6.20;;;1.58;;
59504;SDS011;45321;53.200;5.814;2023-07-13T12:46:57;6.82;;;1.83;;
59504;SDS011;45321;53.200;5.814;2023-07-13T12:49:32;10.10;;;2.13;;
59504;SDS011;45321;53.200;5.814;2023-07-13T12:52:02;11.93;;;2.10;;
59504;SDS011;45321;53.200;5.814;2023-07-13T12:54:29;7.57;;;1.90;;
59504;SDS011;45321;53.200;5.814;2023-07-13T12:56:58;7.47;;;1.92;;
59504;SDS011;45321;53.200;5.814;2023-07-13T12:59:25;10.68;;;1.92;;
59504;SDS011;45321;53.200;5.814;2023-07-13T13:01:58;7.55;;;1.90;;
59504;SDS011;45321;53.200;5.814;2023-07-13T13:04:24;5.35;;;1.90;;
59504;SDS011;45321;53.200;5.814;2023-07-13T13:07:00;8.20;;;2.28;;
59504;SDS011;45321;53.200;5.814;2023-07-13T13:09:27;7.15;;;1.75;;
59504;SDS011;45321;53.200;5.814;2023-07-13T13:11:52;12.85;;;3.00;;
59504;SDS011;45321;53.200;5.814;2023-07-13T13:14:18;9.15;;;2.42;;
59504;SDS011;45321;53.200;5.814;2023-07-13T13:16:48;10.27;;;2.95;;
59504;SDS011;45321;53.200;5.814;2023-07-13T13:19:16;11.75;;;2.00;;
59504;SDS011;45321;53.200;5.814;2023-07-13T13:21:44;7.72;;;1.77;;
59504;SDS011;45321;53.200;5.814;2023-07-13T13:24:14;8.80;;;1.73;;
59504;SDS011;45321;53.200;5.814;2023-07-13T13:26:42;9.35;;;2.13;;
59504;SDS011;45321;53.200;5.814;2023-07-13T13:29:15;10.13;;;2.08;;
59504;SDS011;45321;53.200;5.814;2023-07-13T13:31:43;5.57;;;1.58;;
59504;SDS011;45321;53.200;5.814;2023-07-13T13:34:10;7.13;;;2.03;;
59504;SDS011;45321;53.200;5.814;2023-07-13T13:36:37;7.28;;;1.73;;
59504;SDS011;45321;53.200;5.814;2023-07-13T13:39:05;10.30;;;1.92;;
59504;SDS011;45321;53.200;5.814;2023-07-13T13:41:48;6.55;;;1.83;;
59504;SDS011;45321;53.200;5.814;2023-07-13T13:44:16;7.97;;;2.20;;
59504;SDS011;45321;53.200;5.814;2023-07-13T13:46:43;6.07;;;1.70;;
59504;SDS011;45321;53.200;5.814;2023-07-13T13:49:15;9.20;;;2.03;;
59504;SDS011;45321;53.200;5.814;2023-07-13T13:51:43;4.13;;;1.88;;
59504;SDS011;45321;53.200;5.814;2023-07-13T13:54:10;9.38;;;2.38;;
59504;SDS011;45321;53.200;5.814;2023-07-13T13:56:45;10.18;;;2.20;;
59504;SDS011;45321;53.200;5.814;2023-07-13T13:59:12;14.25;;;2.28;;
59504;SDS011;45321;53.200;5.814;2023-07-13T14:01:39;8.02;;;2.13;;
59504;SDS011;45321;53.200;5.814;2023-07-13T14:04:08;10.70;;;2.28;;
59504;SDS011;45321;53.200;5.814;2023-07-13T14:06:52;7.07;;;1.92;;
59504;SDS011;45321;53.200;5.814;2023-07-13T14:09:18;7.13;;;1.90;;
59504;SDS011;45321;53.200;5.814;2023-07-13T14:11:45;7.30;;;1.88;;
59504;SDS011;45321;53.200;5.814;2023-07-13T14:14:14;6.53;;;1.95;;
59504;SDS011;45321;53.200;5.814;2023-07-13T14:16:43;6.90;;;2.60;;
59504;SDS011;45321;53.200;5.814;2023-07-13T14:19:12;8.40;;;2.40;;
59504;SDS011;45321;53.200;5.814;2023-07-13T14:21:39;7.15;;;2.13;;
59504;SDS011;45321;53.200;5.814;2023-07-13T14:24:05;7.10;;;1.90;;
59504;SDS011;45321;53.200;5.814;2023-07-13T14:26:32;9.30;;;2.10;;
59504;SDS011;45321;53.200;5.814;2023-07-13T14:29:05;5.57;;;1.50;;
59504;SDS011;45321;53.200;5.814;2023-07-13T14:31:37;7.47;;;1.70;;
59504;SDS011;45321;53.200;5.814;2023-07-13T14:34:03;9.02;;;2.10;;
59504;SDS011;45321;53.200;5.814;2023-07-13T14:36:29;5.15;;;1.80;;
59504;SDS011;45321;53.200;5.814;2023-07-13T14:38:58;6.03;;;1.52;;
59504;SDS011;45321;53.200;5.814;2023-07-13T14:41:25;7.40;;;1.80;;
59504;SDS011;45321;53.200;5.814;2023-07-13T14:43:52;4.68;;;1.98;;
59504;SDS011;45321;53.200;5.814;2023-07-13T14:49:00;5.30;;;1.73;;
59504;SDS011;45321;53.200;5.814;2023-07-13T14:51:37;9.15;;;2.38;;
59504;SDS011;45321;53.200;5.814;2023-07-13T14:54:03;7.57;;;2.13;;
59504;SDS011;45321;53.200;5.814;2023-07-13T14:56:30;8.07;;;2.28;;
59504;SDS011;45321;53.200;5.814;2023-07-13T14:58:57;6.20;;;2.10;;
59504;SDS011;45321;53.200;5.814;2023-07-13T15:01:22;7.25;;;2.17;;
59504;SDS011;45321;53.200;5.814;2023-07-13T15:03:49;6.80;;;2.22;;
59504;SDS011;45321;53.200;5.814;2023-07-13T15:06:17;6.85;;;2.20;;
59504;SDS011;45321;53.200;5.814;2023-07-13T15:08:44;7.43;;;2.33;;
59504;SDS011;45321;53.200;5.814;2023-07-13T15:11:10;5.22;;;1.85;;
59504;SDS011;45321;53.200;5.814;2023-07-13T15:13:40;6.75;;;1.92;;
59504;SDS011;45321;53.200;5.814;2023-07-13T15:16:17;7.70;;;1.88;;
59504;SDS011;45321;53.200;5.814;2023-07-13T15:18:46;10.52;;;2.90;;
59504;SDS011;45321;53.200;5.814;2023-07-13T15:21:18;8.98;;;2.40;;
59504;SDS011;45321;53.200;5.814;2023-07-13T15:23:46;9.40;;;1.95;;
59504;SDS011;45321;53.200;5.814;2023-07-13T15:26:15;8.07;;;2.50;;
59504;SDS011;45321;53.200;5.814;2023-07-13T15:28:42;8.07;;;2.65;;
59504;SDS011;45321;53.200;5.814;2023-07-13T15:31:17;8.73;;;2.70;;
59504;SDS011;45321;53.200;5.814;2023-07-13T15:33:48;8.63;;;2.35;;
59504;SDS011;45321;53.200;5.814;2023-07-13T15:36:16;9.93;;;2.53;;
59504;SDS011;45321;53.200;5.814;2023-07-13T15:38:42;10.88;;;2.28;;
59504;SDS011;45321;53.200;5.814;2023-07-13T15:41:14;8.52;;;2.40;;
59504;SDS011;45321;53.200;5.814;2023-07-13T15:43:48;5.95;;;2.38;;
59504;SDS011;45321;53.200;5.814;2023-07-13T15:46:15;6.53;;;2.38;;